デンパサール の空港の天気 - METARとTAF

デンパサール国際空港 ( WADD / DPS ) - インドネシア バリ島デンパサール
飛行場実況気象(Metar)
観測時間01/17 02:00 WITA (01/16 18:00 UTC)
風向・風速北北東 2m/s
視程10km以上
天気現象
少しの雲 雲底高度 520m
気温27℃
湿度79%
気圧1007hPa
METARWADD 161800Z 02004KT 9999 FEW017 27/23 Q1007 NOSIG
過去の天気等 Google飛行場航空写真 Wunderground天気予報

過去48時間のMETAR

飛行場予報(TAF)
発表時間: 1/17 01:00 WITA (1/16 17:00 UTC)
予報対象時間: 17日2時 WITA ~ 18日2時 WITA
風向・風速不定 2m/s
視程10km以上
全天の4割程度の雲 雲底高度 490m
17日10時 WITA ~ 17日12時 WITA に徐々に
風向・風速西 5m/s
17日16時 WITA ~ 17日20時 WITA に一時的に
視程5000m
天気現象雷雨
少しの積乱雲 雲底高度 430m
全天の8割程度の雲 雲底高度 430m
TAF WADD 161700Z 1618/1718 VRB03KT 9999 SCT016
BECMG 1702/1704 28010KT
TEMPO 1708/1712 5000 TSRA FEW014CB BKN014